createdAt,value
2018-06-17T00:00:46.267Z,6.03
2018-06-17T00:03:14.964Z,6.73
2018-06-17T00:05:45.323Z,6.93
2018-06-17T00:08:13.989Z,6.53
2018-06-17T00:10:42.671Z,7.50
2018-06-17T00:13:11.323Z,7.00
2018-06-17T00:15:39.941Z,7.10
2018-06-17T00:18:08.607Z,7.20
2018-06-17T00:20:37.281Z,7.27
2018-06-17T00:23:06.590Z,7.63
2018-06-17T00:25:35.228Z,7.53
2018-06-17T00:28:03.896Z,7.67
2018-06-17T00:30:32.562Z,7.30
2018-06-17T00:33:01.306Z,7.83
2018-06-17T00:35:29.956Z,7.60
2018-06-17T00:37:58.619Z,7.67
2018-06-17T00:40:27.252Z,8.57
2018-06-17T00:42:55.896Z,7.47
2018-06-17T00:45:24.526Z,8.27
2018-06-17T00:47:53.212Z,7.90
2018-06-17T00:50:21.505Z,7.60
2018-06-17T00:52:50.205Z,7.70
2018-06-17T00:55:18.822Z,7.30
2018-06-17T00:57:52.377Z,7.07
2018-06-17T01:00:22.504Z,7.07
2018-06-17T01:02:51.188Z,7.50
2018-06-17T01:05:19.880Z,6.43
2018-06-17T01:07:49.200Z,6.30
2018-06-17T01:10:17.856Z,6.23
2018-06-17T01:12:46.520Z,5.63
2018-06-17T01:15:15.180Z,5.90
2018-06-17T01:17:45.046Z,5.70
2018-06-17T01:20:13.373Z,5.87
2018-06-17T01:22:41.992Z,5.47
2018-06-17T01:25:10.623Z,5.27
2018-06-17T01:27:39.951Z,5.17
2018-06-17T01:30:08.611Z,5.70
2018-06-17T01:32:37.314Z,4.90
2018-06-17T01:35:06.035Z,4.80
2018-06-17T01:37:34.643Z,4.70
2018-06-17T01:40:03.329Z,4.17
2018-06-17T01:42:31.967Z,4.03
2018-06-17T01:45:00.300Z,4.20
2018-06-17T01:47:28.960Z,3.90
2018-06-17T01:49:57.620Z,3.80
2018-06-17T01:52:26.224Z,4.10
2018-06-17T01:54:54.834Z,3.80
2018-06-17T01:57:23.448Z,3.60
2018-06-17T01:59:52.084Z,3.73
2018-06-17T02:02:20.694Z,4.07
2018-06-17T02:04:54.692Z,3.90
2018-06-17T02:07:28.661Z,4.03
2018-06-17T02:10:02.595Z,3.50
2018-06-17T02:12:31.214Z,3.60
2018-06-17T02:15:00.187Z,3.60
2018-06-17T02:17:29.145Z,4.27
2018-06-17T02:19:57.805Z,3.73
2018-06-17T02:22:26.439Z,3.53
2018-06-17T02:24:55.105Z,3.70
2018-06-17T02:27:23.771Z,3.20
2018-06-17T02:29:52.401Z,3.60
2018-06-17T02:32:21.125Z,3.43
2018-06-17T02:34:49.806Z,3.30
2018-06-17T02:37:18.444Z,3.07
2018-06-17T02:39:47.019Z,3.00
2018-06-17T02:42:15.661Z,3.20
2018-06-17T02:44:44.276Z,3.27
2018-06-17T02:47:18.203Z,3.40
2018-06-17T02:49:48.458Z,3.30
2018-06-17T02:52:22.343Z,3.07
2018-06-17T02:54:51.000Z,3.27
2018-06-17T02:57:20.383Z,2.90
2018-06-17T02:59:49.036Z,2.93
2018-06-17T03:02:17.687Z,2.97
2018-06-17T03:04:46.351Z,3.03
2018-06-17T03:07:14.984Z,3.33
2018-06-17T03:09:43.639Z,3.07
2018-06-17T03:12:12.280Z,2.90
2018-06-17T03:14:40.905Z,3.37
2018-06-17T03:17:09.538Z,2.93
2018-06-17T03:19:38.176Z,3.27
2018-06-17T03:22:06.936Z,3.00
2018-06-17T03:24:40.919Z,3.10
2018-06-17T03:27:14.903Z,3.10
2018-06-17T03:29:48.908Z,3.10
2018-06-17T03:32:22.891Z,3.43
2018-06-17T03:34:56.824Z,3.20
2018-06-17T03:37:26.333Z,3.20
2018-06-17T03:39:55.041Z,3.00
2018-06-17T03:42:23.665Z,3.27
2018-06-17T03:44:52.835Z,2.93
2018-06-17T03:47:21.416Z,3.40
2018-06-17T03:49:50.006Z,3.53
2018-06-17T03:52:18.595Z,3.60
2018-06-17T03:54:47.210Z,3.47
2018-06-17T03:57:15.829Z,3.53
2018-06-17T03:59:44.438Z,3.93
2018-06-17T04:02:13.146Z,3.10
2018-06-17T04:04:47.086Z,3.60
2018-06-17T04:07:15.715Z,3.53
2018-06-17T04:09:44.313Z,3.50
2018-06-17T04:12:13.025Z,3.47
2018-06-17T04:14:41.649Z,3.40
2018-06-17T04:17:14.914Z,3.77
2018-06-17T04:19:45.196Z,3.77
2018-06-17T04:22:14.098Z,4.10
2018-06-17T04:24:42.721Z,3.83
2018-06-17T04:27:11.359Z,3.63
2018-06-17T04:29:40.053Z,3.70
2018-06-17T04:32:08.680Z,3.80
2018-06-17T04:34:37.263Z,3.60
2018-06-17T04:37:06.180Z,4.07
2018-06-17T04:39:34.873Z,3.77
2018-06-17T04:42:03.532Z,3.80
2018-06-17T04:44:32.148Z,3.50
2018-06-17T04:47:00.786Z,3.70
2018-06-17T04:49:29.404Z,3.37
2018-06-17T04:51:58.086Z,4.10
2018-06-17T04:54:26.784Z,4.43
2018-06-17T04:56:55.361Z,3.80
2018-06-17T04:59:24.041Z,3.90
2018-06-17T05:01:52.651Z,3.73
2018-06-17T05:04:21.351Z,3.50
2018-06-17T05:06:50.061Z,4.07
2018-06-17T05:09:18.675Z,3.93
2018-06-17T05:11:47.398Z,4.20
2018-06-17T05:14:15.996Z,4.00
2018-06-17T05:16:44.705Z,4.00
2018-06-17T05:19:13.357Z,3.70
2018-06-17T05:21:41.986Z,3.50
2018-06-17T05:24:10.589Z,4.40
2018-06-17T05:26:39.316Z,3.50
2018-06-17T05:29:07.998Z,3.67
2018-06-17T05:31:36.646Z,3.57
2018-06-17T05:34:05.383Z,3.80
2018-06-17T05:36:34.549Z,3.53
2018-06-17T05:39:03.461Z,3.90
2018-06-17T05:41:32.107Z,3.67
2018-06-17T05:44:00.784Z,4.40
2018-06-17T05:46:29.427Z,3.73
2018-06-17T05:48:58.055Z,3.40
2018-06-17T05:51:26.736Z,4.10
2018-06-17T05:53:55.407Z,3.97
2018-06-17T05:56:24.069Z,4.07
2018-06-17T05:58:53.159Z,3.90
2018-06-17T06:01:21.826Z,4.07
2018-06-17T06:03:50.605Z,4.13
2018-06-17T06:06:19.350Z,4.47
2018-06-17T06:08:48.105Z,3.90
2018-06-17T06:11:16.817Z,3.60
2018-06-17T06:13:45.436Z,4.20
2018-06-17T06:16:14.071Z,3.60
2018-06-17T06:18:42.671Z,3.87
2018-06-17T06:21:10.941Z,3.80
2018-06-17T06:23:39.574Z,4.20
2018-06-17T06:26:08.203Z,4.30
2018-06-17T06:28:36.879Z,4.33
2018-06-17T06:31:05.545Z,4.47
2018-06-17T06:33:34.155Z,3.90
2018-06-17T06:36:02.771Z,4.17
2018-06-17T06:38:31.407Z,3.93
2018-06-17T06:41:00.037Z,4.17
2018-06-17T06:43:28.714Z,3.97
2018-06-17T06:45:57.376Z,4.00
2018-06-17T06:48:26.020Z,4.13
2018-06-17T06:50:54.757Z,4.80
2018-06-17T06:53:23.349Z,4.40
2018-06-17T06:55:52.043Z,4.30
2018-06-17T06:58:20.657Z,4.20
2018-06-17T07:00:49.542Z,4.20
2018-06-17T07:03:29.386Z,4.30
2018-06-17T07:06:09.370Z,4.30
2018-06-17T07:08:49.246Z,4.90
2018-06-17T07:11:18.561Z,4.93
2018-06-17T07:13:47.179Z,5.13
2018-06-17T07:16:26.941Z,4.90
2018-06-17T07:18:55.911Z,4.37
2018-06-17T07:21:24.609Z,5.20
2018-06-17T07:23:53.303Z,5.33
2018-06-17T07:26:35.581Z,5.17
2018-06-17T07:29:15.714Z,4.70
2018-06-17T07:31:44.385Z,5.07
2018-06-17T07:34:13.884Z,4.97
2018-06-17T07:36:42.890Z,4.80
2018-06-17T07:40:25.340Z,5.00
2018-06-17T07:42:53.964Z,5.47
2018-06-17T07:45:22.708Z,5.17
2018-06-17T07:47:51.405Z,6.50
2018-06-17T07:50:31.151Z,5.90
2018-06-17T07:53:15.838Z,5.10
2018-06-17T07:55:44.459Z,5.07
2018-06-17T07:58:13.922Z,5.07
2018-06-17T08:00:42.903Z,5.00
2018-06-17T08:03:11.705Z,4.97
2018-06-17T08:05:40.315Z,4.80
2018-06-17T08:08:09.000Z,6.20
2018-06-17T08:10:37.675Z,4.73
2018-06-17T08:13:06.330Z,4.43
2018-06-17T08:15:34.916Z,5.10
2018-06-17T08:18:03.592Z,4.47
2018-06-17T08:20:32.218Z,4.23
2018-06-17T08:23:00.829Z,4.33
2018-06-17T08:25:29.526Z,4.77
2018-06-17T08:27:58.182Z,4.20
2018-06-17T08:30:26.857Z,4.27
2018-06-17T08:32:55.492Z,4.53
2018-06-17T08:35:24.188Z,4.50
2018-06-17T08:37:52.860Z,4.00
2018-06-17T08:40:21.551Z,4.10
2018-06-17T08:42:50.175Z,4.27
2018-06-17T08:45:18.830Z,4.13
2018-06-17T08:47:47.537Z,4.13
2018-06-17T08:50:16.201Z,4.07
2018-06-17T08:52:44.826Z,4.00
2018-06-17T08:55:13.472Z,4.10
2018-06-17T08:57:42.072Z,4.10
2018-06-17T09:00:10.791Z,4.10
2018-06-17T09:02:39.390Z,4.03
2018-06-17T09:05:08.061Z,4.07
2018-06-17T09:07:36.680Z,3.97
2018-06-17T09:10:05.475Z,4.53
2018-06-17T09:12:34.082Z,4.10
2018-06-17T09:15:02.688Z,4.77
2018-06-17T09:17:31.352Z,4.17
2018-06-17T09:20:00.028Z,3.90
2018-06-17T09:22:28.656Z,4.53
2018-06-17T09:24:57.294Z,4.17
2018-06-17T09:27:25.994Z,4.47
2018-06-17T09:29:54.640Z,4.97
2018-06-17T09:32:23.359Z,4.47
2018-06-17T09:34:52.107Z,4.60
2018-06-17T09:37:20.716Z,4.60
2018-06-17T09:39:49.029Z,4.53
2018-06-17T09:42:17.702Z,4.00
2018-06-17T09:44:46.344Z,4.20
2018-06-17T09:47:14.938Z,4.57
2018-06-17T09:49:43.571Z,4.50
2018-06-17T09:52:12.325Z,5.00
2018-06-17T09:54:40.979Z,4.70
2018-06-17T09:57:09.562Z,5.77
2018-06-17T09:59:38.201Z,4.07
2018-06-17T10:02:06.845Z,4.37
2018-06-17T10:04:35.489Z,4.50
2018-06-17T10:07:04.125Z,4.20
2018-06-17T10:09:35.841Z,4.07
2018-06-17T10:12:04.500Z,4.17
2018-06-17T10:14:33.137Z,4.53
2018-06-17T10:17:01.839Z,4.70
2018-06-17T10:19:30.429Z,4.60
2018-06-17T10:21:59.085Z,4.80
2018-06-17T10:24:27.724Z,5.37
2018-06-17T10:26:56.388Z,5.53
2018-06-17T10:29:25.122Z,5.63
2018-06-17T10:31:53.928Z,5.47
2018-06-17T10:34:22.643Z,5.80
2018-06-17T10:36:51.298Z,5.40
2018-06-17T10:39:19.962Z,5.13
2018-06-17T10:41:48.657Z,4.83
2018-06-17T10:44:17.329Z,4.60
2018-06-17T10:46:46.009Z,5.10
2018-06-17T10:49:14.675Z,6.00
2018-06-17T10:51:44.283Z,5.60
2018-06-17T10:54:12.905Z,5.33
2018-06-17T10:56:41.540Z,5.30
2018-06-17T10:59:10.161Z,5.47
2018-06-17T11:01:38.871Z,5.87
2018-06-17T11:04:07.485Z,5.77
2018-06-17T11:06:36.198Z,6.60
2018-06-17T11:09:06.636Z,6.27
2018-06-17T11:11:35.292Z,6.47
2018-06-17T11:14:03.913Z,5.57
2018-06-17T11:16:32.604Z,6.27
2018-06-17T11:19:01.811Z,6.37
2018-06-17T11:21:30.474Z,6.10
2018-06-17T11:23:59.186Z,6.30
2018-06-17T11:26:27.863Z,6.50
2018-06-17T11:28:56.483Z,6.57
2018-06-17T11:31:25.123Z,6.77
2018-06-17T11:33:53.821Z,6.90
2018-06-17T11:36:22.454Z,6.57
2018-06-17T11:38:51.205Z,6.80
2018-06-17T11:41:20.595Z,6.80
2018-06-17T11:43:49.273Z,6.40
2018-06-17T11:46:17.955Z,6.30
2018-06-17T11:48:46.802Z,6.50
2018-06-17T11:51:15.439Z,5.80
2018-06-17T11:53:44.088Z,5.50
2018-06-17T11:56:12.780Z,5.60
2018-06-17T11:58:41.409Z,5.67
2018-06-17T12:01:10.084Z,5.00
2018-06-17T12:03:38.974Z,5.23
2018-06-17T12:06:07.632Z,4.70
2018-06-17T12:08:36.274Z,4.87
2018-06-17T12:11:04.886Z,5.00
2018-06-17T12:13:33.490Z,4.90
2018-06-17T12:16:02.151Z,5.10
2018-06-17T12:18:31.470Z,5.03
2018-06-17T12:21:00.277Z,5.57
2018-06-17T12:23:28.600Z,5.30
2018-06-17T12:25:57.993Z,5.47
2018-06-17T12:28:26.703Z,5.67
2018-06-17T12:30:55.353Z,5.83
2018-06-17T12:33:24.095Z,6.40
2018-06-17T12:35:52.819Z,5.87
2018-06-17T12:38:21.453Z,5.70
2018-06-17T12:40:50.108Z,6.30
2018-06-17T12:43:18.795Z,5.90
2018-06-17T12:45:47.762Z,5.77
2018-06-17T12:48:16.392Z,5.50
2018-06-17T12:50:45.120Z,5.60
2018-06-17T12:53:13.824Z,5.97
2018-06-17T12:55:42.532Z,5.50
2018-06-17T12:58:11.294Z,5.57
2018-06-17T13:00:39.958Z,5.63
2018-06-17T13:03:08.569Z,6.07
2018-06-17T13:05:37.281Z,5.17
2018-06-17T13:08:06.190Z,5.70
2018-06-17T13:10:34.877Z,5.70
2018-06-17T13:13:03.625Z,4.83
2018-06-17T13:15:32.313Z,5.70
2018-06-17T13:18:01.070Z,5.10
2018-06-17T13:20:29.739Z,5.10
2018-06-17T13:22:58.387Z,5.10
2018-06-17T13:25:27.025Z,6.10
2018-06-17T13:27:55.718Z,6.60
2018-06-17T13:30:24.370Z,6.30
2018-06-17T13:32:53.035Z,6.47
2018-06-17T13:35:24.106Z,5.77
2018-06-17T13:37:54.634Z,5.90
2018-06-17T13:40:29.493Z,6.13
2018-06-17T13:43:00.185Z,5.40
2018-06-17T13:45:29.171Z,6.37
2018-06-17T13:47:57.410Z,6.00
2018-06-17T13:50:26.098Z,5.50
2018-06-17T13:52:56.756Z,6.03
2018-06-17T13:55:26.737Z,6.00
2018-06-17T13:57:55.540Z,6.50
2018-06-17T14:00:24.371Z,6.67
2018-06-17T14:02:53.142Z,6.27
2018-06-17T14:05:22.230Z,6.27
2018-06-17T14:07:51.046Z,6.57
2018-06-17T14:10:19.919Z,6.63
2018-06-17T14:12:49.321Z,6.30
2018-06-17T14:15:18.559Z,5.93
2018-06-17T14:17:47.272Z,6.43
2018-06-17T14:20:16.068Z,6.80
2018-06-17T14:22:45.003Z,6.60
2018-06-17T14:25:13.756Z,6.37
2018-06-17T14:27:42.896Z,5.90
2018-06-17T14:30:11.677Z,6.23
2018-06-17T14:32:40.503Z,6.30
2018-06-17T14:35:08.879Z,6.47
2018-06-17T14:37:37.691Z,6.40
2018-06-17T14:40:06.997Z,6.80
2018-06-17T14:42:40.945Z,6.17
2018-06-17T14:45:15.185Z,6.33
2018-06-17T14:47:50.154Z,6.33
2018-06-17T14:50:25.456Z,5.83
2018-06-17T14:52:59.518Z,6.50
2018-06-17T14:55:29.102Z,6.80
2018-06-17T14:57:57.912Z,5.87
2018-06-17T15:00:26.936Z,6.40
2018-06-17T15:02:55.842Z,6.13
2018-06-17T15:05:24.576Z,6.23
2018-06-17T15:07:53.476Z,6.13
2018-06-17T15:10:22.239Z,6.13
2018-06-17T15:12:50.994Z,6.63
2018-06-17T15:15:19.781Z,6.47
2018-06-17T15:17:48.619Z,6.80
2018-06-17T15:20:18.313Z,6.20
2018-06-17T15:22:47.082Z,6.43
2018-06-17T15:25:15.830Z,6.27
2018-06-17T15:27:44.598Z,6.57
2018-06-17T15:30:13.820Z,6.60
2018-06-17T15:32:47.981Z,6.53
2018-06-17T15:35:22.058Z,6.23
2018-06-17T15:37:56.418Z,6.50
2018-06-17T15:40:40.837Z,6.07
2018-06-17T15:43:09.781Z,6.53
2018-06-17T15:45:38.664Z,5.53
2018-06-17T15:48:08.201Z,5.30
2018-06-17T15:50:37.165Z,5.47
2018-06-17T15:53:06.220Z,5.00
2018-06-17T15:55:34.986Z,4.47
2018-06-17T15:58:03.776Z,4.37
2018-06-17T16:00:32.686Z,4.80
2018-06-17T16:03:02.697Z,5.10
2018-06-17T16:05:31.794Z,5.40
2018-06-17T16:08:00.605Z,6.00
2018-06-17T16:10:29.425Z,5.70
2018-06-17T16:13:03.617Z,5.87
2018-06-17T16:15:39.553Z,5.53
2018-06-17T16:18:14.433Z,5.60
2018-06-17T16:21:02.623Z,6.37
2018-06-17T16:23:32.687Z,6.33
2018-06-17T16:26:01.999Z,6.20
2018-06-17T16:28:30.792Z,6.30
2018-06-17T16:30:59.991Z,6.00
2018-06-17T16:33:28.904Z,5.90
2018-06-17T16:35:58.104Z,5.60
2018-06-17T16:38:26.919Z,6.07
2018-06-17T16:40:55.614Z,6.20
2018-06-17T16:43:24.566Z,6.43
2018-06-17T16:45:53.369Z,6.50
2018-06-17T16:48:22.123Z,6.40
2018-06-17T16:50:56.181Z,6.63
2018-06-17T16:53:30.151Z,6.30
2018-06-17T16:56:04.231Z,6.37
2018-06-17T16:58:38.198Z,6.63
2018-06-17T17:01:07.019Z,6.70
2018-06-17T17:03:35.738Z,6.70
2018-06-17T17:06:04.510Z,6.73
2018-06-17T17:08:33.591Z,6.90
2018-06-17T17:11:02.322Z,6.77
2018-06-17T17:13:31.046Z,6.63
2018-06-17T17:15:59.852Z,6.33
2018-06-17T17:18:28.606Z,6.00
2018-06-17T17:21:00.682Z,6.00
2018-06-17T17:23:29.550Z,5.33
2018-06-17T17:25:58.618Z,5.47
2018-06-17T17:28:28.517Z,5.90
2018-06-17T17:30:57.292Z,5.93
2018-06-17T17:33:31.309Z,5.30
2018-06-17T17:36:05.330Z,5.00
2018-06-17T17:38:40.057Z,5.20
2018-06-17T17:41:08.815Z,5.20
2018-06-17T17:43:39.939Z,5.10
2018-06-17T17:46:13.975Z,5.27
2018-06-17T17:48:43.611Z,5.57
2018-06-17T17:51:12.378Z,6.10
2018-06-17T17:53:41.840Z,5.83
2018-06-17T17:56:10.666Z,6.23
2018-06-17T17:58:40.260Z,5.80
2018-06-17T18:01:09.022Z,6.17
2018-06-17T18:03:37.854Z,5.50
2018-06-17T18:06:06.977Z,6.00
2018-06-17T18:08:35.761Z,6.20
2018-06-17T18:11:04.553Z,5.67
2018-06-17T18:13:33.890Z,6.07
2018-06-17T18:16:02.669Z,6.13
2018-06-17T18:18:31.476Z,6.57
2018-06-17T18:21:00.270Z,6.10
2018-06-17T18:23:29.032Z,6.60
2018-06-17T18:26:03.165Z,6.47
2018-06-17T18:28:37.324Z,6.63
2018-06-17T18:31:06.466Z,6.33
2018-06-17T18:33:40.577Z,6.03
2018-06-17T18:36:14.990Z,6.40
2018-06-17T18:38:45.939Z,6.10
2018-06-17T18:41:15.658Z,6.67
2018-06-17T18:43:44.429Z,6.33
2018-06-17T18:46:14.283Z,6.03
2018-06-17T18:48:43.910Z,6.07
2018-06-17T18:51:12.620Z,6.23
2018-06-17T18:53:41.300Z,6.23
2018-06-17T18:56:10.110Z,6.20
2018-06-17T18:58:38.870Z,6.37
2018-06-17T19:01:07.552Z,7.30
2018-06-17T19:03:36.299Z,7.57
2018-06-17T19:06:05.057Z,6.53
2018-06-17T19:08:38.975Z,6.13
2018-06-17T19:11:13.064Z,6.17
2018-06-17T19:13:47.995Z,6.20
2018-06-17T19:16:23.377Z,6.20
2018-06-17T19:18:54.426Z,6.53
2018-06-17T19:21:23.091Z,6.10
2018-06-17T19:23:51.917Z,6.87
2018-06-17T19:26:20.575Z,6.70
2018-06-17T19:28:49.354Z,5.80
2018-06-17T19:31:18.036Z,5.73
2018-06-17T19:33:46.738Z,6.63
2018-06-17T19:36:15.431Z,6.33
2018-06-17T19:38:44.074Z,7.03
2018-06-17T19:41:12.760Z,6.70
2018-06-17T19:43:41.517Z,6.93
2018-06-17T19:46:10.173Z,6.60
2018-06-17T19:48:38.904Z,7.00
2018-06-17T19:52:14.418Z,6.67
2018-06-17T19:54:48.187Z,6.37
2018-06-17T19:57:22.235Z,7.17
2018-06-17T19:59:56.141Z,6.83
2018-06-17T20:02:24.836Z,7.60
2018-06-17T20:04:54.437Z,7.03
2018-06-17T20:07:23.144Z,7.30
2018-06-17T20:09:51.800Z,7.53
2018-06-17T20:12:20.544Z,7.50
2018-06-17T20:14:49.197Z,7.23
2018-06-17T20:17:17.855Z,7.67
2018-06-17T20:19:46.167Z,6.97
2018-06-17T20:22:14.849Z,7.50
2018-06-17T20:24:43.497Z,8.23
2018-06-17T20:27:12.219Z,7.73
2018-06-17T20:29:40.976Z,8.00
2018-06-17T20:32:14.954Z,7.63
2018-06-17T20:34:48.951Z,8.20
2018-06-17T20:38:24.496Z,8.50
2018-06-17T20:40:58.535Z,6.80
2018-06-17T20:43:32.530Z,7.93
2018-06-17T20:46:01.827Z,7.53
2018-06-17T20:48:30.581Z,7.63
2018-06-17T20:50:59.259Z,7.70
2018-06-17T20:53:27.947Z,7.43
2018-06-17T20:55:56.651Z,7.10
2018-06-17T20:58:25.450Z,7.00
2018-06-17T21:00:54.131Z,6.87
2018-06-17T21:03:22.890Z,7.07
2018-06-17T21:05:51.690Z,6.70
2018-06-17T21:08:20.373Z,7.60
2018-06-17T21:10:48.726Z,7.40
2018-06-17T21:13:17.431Z,6.57
2018-06-17T21:15:46.121Z,7.73
2018-06-17T21:18:19.037Z,8.30
2018-06-17T21:20:53.031Z,8.47
2018-06-17T21:23:26.930Z,8.07
2018-06-17T21:26:00.783Z,8.33
2018-06-17T21:28:29.465Z,7.53
2018-06-17T21:30:58.113Z,7.60
2018-06-17T21:33:26.781Z,7.73
2018-06-17T21:35:55.481Z,7.73
2018-06-17T21:38:24.088Z,8.83
2018-06-17T21:40:52.719Z,8.07
2018-06-17T21:43:21.377Z,7.70
2018-06-17T21:45:50.040Z,7.80
2018-06-17T21:48:18.654Z,8.40
2018-06-17T21:50:47.316Z,8.50
2018-06-17T21:53:16.021Z,8.70
2018-06-17T21:55:44.680Z,9.20
2018-06-17T21:58:17.556Z,9.30
2018-06-17T22:00:46.186Z,9.50
2018-06-17T22:03:14.822Z,9.57
2018-06-17T22:05:43.502Z,9.77
2018-06-17T22:08:17.484Z,10.00
2018-06-17T22:10:51.490Z,10.27
2018-06-17T22:13:20.238Z,10.07
2018-06-17T22:15:54.169Z,11.03
2018-06-17T22:18:22.995Z,11.17
2018-06-17T22:20:51.741Z,11.70
2018-06-17T22:23:20.363Z,10.90
2018-06-17T22:25:49.025Z,10.63
2018-06-17T22:28:17.726Z,10.47
2018-06-17T22:30:46.429Z,10.67
2018-06-17T22:33:15.096Z,10.70
2018-06-17T22:35:43.772Z,10.03
2018-06-17T22:38:12.538Z,10.40
2018-06-17T22:40:41.272Z,9.70
2018-06-17T22:43:09.954Z,9.47
2018-06-17T22:45:38.682Z,10.17
2018-06-17T22:48:07.343Z,9.83
2018-06-17T22:50:36.038Z,10.43
2018-06-17T22:53:15.900Z,10.37
2018-06-17T22:55:44.558Z,10.83
2018-06-17T22:58:18.426Z,10.53
2018-06-17T23:00:52.333Z,9.80
2018-06-17T23:03:26.331Z,10.30
2018-06-17T23:06:00.305Z,9.73
2018-06-17T23:08:34.950Z,9.83
2018-06-17T23:11:03.651Z,10.30
2018-06-17T23:13:32.350Z,11.07
2018-06-17T23:16:01.023Z,9.90
2018-06-17T23:18:31.120Z,10.10
2018-06-17T23:21:00.143Z,10.07
2018-06-17T23:23:28.872Z,10.00
2018-06-17T23:25:57.598Z,10.23
2018-06-17T23:28:26.360Z,10.13
2018-06-17T23:30:55.098Z,10.37
2018-06-17T23:33:23.776Z,9.77
2018-06-17T23:35:52.459Z,9.47
2018-06-17T23:38:21.474Z,9.50
2018-06-17T23:40:50.201Z,9.00
2018-06-17T23:43:18.928Z,8.87
2018-06-17T23:45:52.931Z,8.70
2018-06-17T23:48:26.969Z,8.77
2018-06-17T23:51:00.991Z,8.80
2018-06-17T23:53:34.889Z,8.73
2018-06-17T23:56:07.207Z,8.30
2018-06-17T23:58:36.303Z,7.87
